메인 페이지
METAR-TAF:

METAR-TAF

공항 :

조지 부시 인터콘티넨털 공항

휴스턴, 텍사스, 미국

위도: 29-59-33N, 경도: 095-21-50W, 고도: 29m

현재 날씨관측

예보는 34분 전, 21:53시(UTC)에 발표되었습니다.
북북동4kt
온도 12°C
습도 38%
기압 1026 hPa
시정: 16.1km
고도 25000ft 상공 구름 많음

METAR: KIAH 202153Z 02004KT 10SM BKN250 12/M02 A3029 RMK AO2 SLP256 T01221017

시각: 16:27 (22:27 UTC)

예보

예보는 5 시간 7분 전, 17:20시(UTC)에 발표되었습니다.
예보 대상 시간: 20일 18시부터 21일 24시까지 (UTC)
8kt
시정: 10km
고도 25000ft 상공 구름 조금
21일 0000시부터 (UTC)
여러 방향의 바람 3kt
시정: 10km
고도 25000ft 상공 구름 보통
21일 1500시부터 (UTC)
6kt
시정: 10km
고도 2500ft 상공 구름 조금
고도 25000ft 상공 구름 보통
21일 1800시부터 (UTC)
남동9kt
시정: 10km
고도 2000ft 상공 구름 보통

TAF: KIAH 201720Z 2018/2124 01008KT P6SM FEW250 FM210000 VRB03KT P6SM SCT250 FM211500 10006KT P6SM FEW025 SCT250 FM211800 13009KT P6SM SCT020

4,000개 이상의 공항 관측 자료 및 예보 (METAR 및 TAF 보고).

지도상에서 검색 가능한 기상관측소가 노란 점과 빨간 점으로 표시되어 있습니다.

기상관측소 명을 보려면 표시 위로 마우스를 이동하세요.

날씨 관측과 예보를 보려면 클릭하세요.

지도 변경 : 확대하려면 엑스 표시가 있는 녹색 버튼, 축소하려면 빼기 표시가 있는 녹색 버튼, 다음 페이지의 지도를 보려면 녹색 화살표를 클릭하세요.


METAR-TAF: